Time;durP1;ratioP1;P1;durP2;ratioP2;P2;SDS_P1;SDS_P2;PMS_P1;PMS_P2;Temp;Humidity;BMP_temperature;BMP_pressure;BME280_temperature;BME280_humidity;BME280_pressure;Samples;Min_cycle;Max_cycle;Signal;HPM_P1;HPM_P2
2022/01/07 00:01:55;;;;;;;10.65;5.35;;;;;;;0.84;82.35;98812.13;1755894;81;20960;-69
2022/01/07 00:04:22;;;;;;;9.60;4.37;;;;;;;0.81;82.08;98820.81;1752185;81;21095;-69
2022/01/07 00:06:48;;;;;;;8.05;4.85;;;;;;;0.79;81.69;98830.58;1752289;81;21587;-68
2022/01/07 00:09:14;;;;;;;6.37;4.10;;;;;;;0.77;81.53;98834.10;1753244;80;21118;-66
2022/01/07 00:11:41;;;;;;;9.20;4.50;;;;;;;0.76;81.45;98842.52;1752701;81;21103;-68
2022/01/07 00:14:08;;;;;;;9.60;4.62;;;;;;;0.76;81.20;98849.30;1751916;81;21026;-67
2022/01/07 00:16:34;;;;;;;10.82;4.80;;;;;;;0.76;81.24;98846.05;1753167;81;20912;-67
2022/01/07 00:19:01;;;;;;;8.35;4.97;;;;;;;0.75;81.32;98849.83;1752454;80;20940;-65
2022/01/07 00:21:29;;;;;;;8.90;5.08;;;;;;;0.77;81.32;98855.01;1755760;81;21578;-67
2022/01/07 00:23:56;;;;;;;9.18;5.03;;;;;;;0.80;81.21;98866.67;1752380;81;21085;-67
2022/01/07 00:26:22;;;;;;;7.12;4.42;;;;;;;0.81;81.20;98865.57;1750302;81;21445;-68
2022/01/07 00:28:49;;;;;;;9.10;4.70;;;;;;;0.80;81.15;98870.73;1758031;81;20880;-67
2022/01/07 00:31:17;;;;;;;6.35;4.45;;;;;;;0.81;81.04;98869.64;1755877;81;20945;-67
2022/01/07 00:33:43;;;;;;;10.15;4.65;;;;;;;0.84;80.95;98865.02;1752408;79;20915;-67
2022/01/07 00:36:10;;;;;;;7.72;4.30;;;;;;;0.83;80.79;98866.95;1759305;81;21147;-65
2022/01/07 00:38:36;;;;;;;8.20;4.50;;;;;;;0.84;80.64;98869.92;1755884;81;21531;-68
2022/01/07 00:41:03;;;;;;;5.50;4.22;;;;;;;0.84;80.48;98868.56;1755795;81;20869;-68
2022/01/07 00:43:29;;;;;;;5.72;3.65;;;;;;;0.84;80.35;98875.88;1749227;81;20984;-68
2022/01/07 00:45:56;;;;;;;5.35;3.55;;;;;;;0.83;79.98;98882.40;1748913;80;21023;-68
2022/01/07 00:48:22;;;;;;;5.28;3.52;;;;;;;0.82;79.81;98876.15;1755146;81;21139;-67
2022/01/07 00:50:50;;;;;;;7.20;3.87;;;;;;;0.81;79.59;98877.78;1748710;81;21620;-68
2022/01/07 00:53:16;;;;;;;6.05;3.58;;;;;;;0.80;79.34;98885.66;1743310;81;21449;-68
2022/01/07 00:55:42;;;;;;;6.47;3.58;;;;;;;0.78;79.34;98879.69;1759340;81;21078;-66
2022/01/07 00:58:11;;;;;;;6.20;3.50;;;;;;;0.78;78.92;98890.53;1755902;81;21031;-66
2022/01/07 01:00:37;;;;;;;8.53;4.28;;;;;;;0.76;78.76;98888.09;1759415;81;21484;-68
2022/01/07 01:03:04;;;;;;;4.97;3.47;;;;;;;0.74;78.53;98894.32;1750024;81;20931;-68
2022/01/07 01:05:30;;;;;;;5.47;3.90;;;;;;;0.73;78.36;98889.99;1752433;81;21006;-63
2022/01/07 01:07:57;;;;;;;7.62;4.47;;;;;;;0.73;77.98;98888.64;1748881;81;22002;-68
2022/01/07 01:10:27;;;;;;;6.05;3.60;;;;;;;0.73;77.81;98896.21;1755658;81;21523;-68
2022/01/07 01:12:55;;;;;;;3.90;2.90;;;;;;;0.75;77.53;98881.58;1755811;81;21058;-68
2022/01/07 01:15:23;;;;;;;5.05;3.22;;;;;;;0.76;77.31;98879.13;1755666;81;20967;-65
2022/01/07 01:17:51;;;;;;;6.55;3.15;;;;;;;0.74;76.70;98888.90;1752223;81;20948;-67
2022/01/07 01:20:17;;;;;;;4.45;3.15;;;;;;;0.73;76.50;98889.99;1752222;79;21010;-66
2022/01/07 01:22:44;;;;;;;5.10;3.35;;;;;;;0.70;75.95;98898.11;1757621;81;20964;-68
2022/01/07 01:25:11;;;;;;;7.20;3.47;;;;;;;0.70;75.96;98889.18;1754642;81;21495;-67
2022/01/07 01:27:37;;;;;;;5.15;3.22;;;;;;;0.70;75.75;98896.75;1752273;80;21027;-67
2022/01/07 01:30:07;;;;;;;6.08;3.85;;;;;;;0.71;75.67;98889.44;1759342;81;20904;-67
2022/01/07 01:32:34;;;;;;;6.62;3.72;;;;;;;0.67;75.60;98888.34;1755951;81;20939;-65
2022/01/07 01:35:01;;;;;;;5.95;3.55;;;;;;;0.67;75.44;98898.66;1752203;81;21046;-66
2022/01/07 01:37:29;;;;;;;8.20;4.65;;;;;;;0.67;75.54;98903.25;1755879;81;21217;-67
2022/01/07 01:39:55;;;;;;;6.78;4.10;;;;;;;0.66;75.50;98905.70;1759263;81;20980;-64
2022/01/07 01:42:22;;;;;;;7.97;3.75;;;;;;;0.67;75.41;98908.67;1755751;79;20953;-65
2022/01/07 01:44:48;;;;;;;7.33;3.55;;;;;;;0.68;75.43;98922.53;1755823;81;21023;-64
2022/01/07 01:47:14;;;;;;;6.15;3.25;;;;;;;0.67;75.40;98935.80;1752285;81;20933;-66
2022/01/07 01:49:40;;;;;;;6.20;3.17;;;;;;;0.68;75.25;98945.58;1759316;81;21309;-68
2022/01/07 01:52:07;;;;;;;5.37;3.30;;;;;;;0.65;75.24;98945.56;1745177;81;21050;-67
2022/01/07 01:54:33;;;;;;;7.30;3.33;;;;;;;0.63;75.31;98942.86;1752298;81;20889;-67
2022/01/07 01:56:59;;;;;;;7.00;3.70;;;;;;;0.60;75.32;98951.80;1759364;81;22010;-65
2022/01/07 01:59:28;;;;;;;5.80;3.12;;;;;;;0.59;75.53;98949.36;1756761;81;20944;-65
2022/01/07 02:01:54;;;;;;;3.33;2.33;;;;;;;0.56;75.61;98946.63;1755306;81;21816;-68
2022/01/07 02:04:23;;;;;;;3.72;2.70;;;;;;;0.54;75.72;98947.98;1755729;81;21033;-68
2022/01/07 02:06:51;;;;;;;6.22;2.80;;;;;;;0.51;75.77;98947.17;1755822;81;21039;-67
2022/01/07 02:09:22;;;;;;;6.12;2.83;;;;;;;0.50;76.01;98955.01;1748691;81;21048;-66
2022/01/07 02:11:46;;;;;;;3.58;2.70;;;;;;;0.47;76.07;98957.73;1755760;81;20968;-67
2022/01/07 02:14:14;;;;;;;5.00;2.72;;;;;;;0.45;76.36;98971.55;1759212;79;21131;-67
2022/01/07 02:16:42;;;;;;;4.92;3.15;;;;;;;0.43;76.48;98975.06;1748770;81;20948;-67
2022/01/07 02:19:08;;;;;;;5.35;2.50;;;;;;;0.40;76.75;98964.76;1759374;81;21225;-67
2022/01/07 02:21:37;;;;;;;6.85;2.80;;;;;;;0.38;76.81;98961.48;1756426;81;20999;-66
2022/01/07 02:24:05;;;;;;;4.37;2.10;;;;;;;0.36;76.98;98973.13;1755793;81;21043;-67
2022/01/07 02:26:33;;;;;;;4.08;2.27;;;;;;;0.34;77.06;98968.54;1752351;81;21097;-67
2022/01/07 02:29:02;;;;;;;3.12;1.80;;;;;;;0.30;77.28;98968.25;1750278;81;21035;-66
2022/01/07 02:31:29;;;;;;;4.08;2.05;;;;;;;0.30;77.41;98975.02;1754841;81;20960;-67
2022/01/07 02:33:57;;;;;;;4.00;1.92;;;;;;;0.29;77.57;98988.84;1756788;81;21986;-68
2022/01/07 02:36:24;;;;;;;4.50;2.42;;;;;;;0.27;77.69;98982.87;1752353;81;21506;-68
2022/01/07 02:38:50;;;;;;;2.65;2.08;;;;;;;0.27;77.91;98989.11;1755754;81;21101;-68
2022/01/07 02:41:16;;;;;;;4.55;1.75;;;;;;;0.30;77.97;98991.82;1755695;79;21019;-66
2022/01/07 02:43:42;;;;;;;6.30;2.00;;;;;;;0.30;78.05;98986.40;1752311;80;20891;-68
2022/01/07 02:46:10;;;;;;;2.50;1.80;;;;;;;0.30;78.07;98998.06;1755773;81;21523;-67
2022/01/07 02:48:36;;;;;;;4.47;2.02;;;;;;;0.30;78.09;98994.53;1748825;81;20915;-66
2022/01/07 02:51:04;;;;;;;2.70;1.60;;;;;;;0.27;78.24;99006.73;1752457;81;21492;-67
2022/01/07 02:53:30;;;;;;;3.10;1.90;;;;;;;0.26;78.50;99015.13;1748967;81;20939;-67
2022/01/07 02:55:56;;;;;;;2.05;1.50;;;;;;;0.22;79.00;99011.56;1755984;81;20919;-67
2022/01/07 02:58:23;;;;;;;3.12;1.65;;;;;;;0.18;79.95;99019.14;1759441;81;20978;-68
2022/01/07 03:00:51;;;;;;;2.22;1.57;;;;;;;0.10;80.39;99023.17;1752463;81;21480;-67
2022/01/07 03:03:18;;;;;;;3.22;1.47;;;;;;;0.02;81.30;99030.44;1756006;81;21902;-64
2022/01/07 03:05:44;;;;;;;2.17;1.30;;;;;;;-0.06;81.79;99035.27;1751089;81;20844;-66
2022/01/07 03:08:12;;;;;;;1.25;1.15;;;;;;;-0.11;82.34;99046.59;1754230;81;20949;-67
2022/01/07 03:10:40;;;;;;;1.50;1.10;;;;;;;-0.18;83.16;99054.95;1752421;81;20971;-66
2022/01/07 03:13:06;;;;;;;4.28;1.50;;;;;;;-0.47;95.05;99054.73;1752494;81;20929;-65
2022/01/07 03:15:35;;;;;;;2.05;1.30;;;;;;;-0.77;100.00;99056.90;1749959;81;21129;-67
2022/01/07 03:18:03;;;;;;;1.35;1.05;;;;;;;-0.92;100.00;99062.18;1759281;79;20990;-66
2022/01/07 03:20:37;;;;;;;1.37;0.80;;;;;;;-1.03;100.00;99060.72;1752477;81;20992;-66
2022/01/07 03:22:59;;;;;;;2.60;1.30;;;;;;;-1.06;100.00;99076.11;1754850;81;20943;-67
2022/01/07 03:25:25;;;;;;;5.12;1.20;;;;;;;-1.10;100.00;99081.73;1756002;81;20920;-67
2022/01/07 03:27:51;;;;;;;2.45;1.45;;;;;;;-1.16;100.00;99084.09;1755896;81;21048;-68
2022/01/07 03:30:18;;;;;;;4.30;1.85;;;;;;;-1.16;100.00;99088.16;1759172;81;20927;-63
2022/01/07 03:32:44;;;;;;;3.37;1.80;;;;;;;-1.16;100.00;99096.27;1759575;81;20967;-67
2022/01/07 03:35:11;;;;;;;3.65;1.72;;;;;;;-1.12;100.00;99094.68;1759401;81;21038;-68
2022/01/07 03:37:41;;;;;;;5.50;2.37;;;;;;;-1.08;100.00;99098.52;1752488;81;21064;-67
2022/01/07 03:40:09;;;;;;;2.95;1.85;;;;;;;-1.04;100.00;99107.75;1752494;81;21161;-67
2022/01/07 03:42:35;;;;;;;3.25;2.10;;;;;;;-0.99;100.00;99113.22;1752321;81;21026;-67
2022/01/07 03:45:05;;;;;;;3.42;2.20;;;;;;;-0.97;100.00;99114.32;1752264;80;21133;-67
2022/01/07 03:47:32;;;;;;;4.53;2.33;;;;;;;-0.95;100.00;99117.59;1759328;81;21058;-64
2022/01/07 03:49:59;;;;;;;2.42;1.45;;;;;;;-0.90;100.00;99117.66;1759330;81;21389;-68
2022/01/07 03:52:25;;;;;;;4.78;1.77;;;;;;;-0.88;100.00;99117.39;1759329;81;21128;-67
2022/01/07 03:54:51;;;;;;;2.92;1.80;;;;;;;-0.88;100.00;99127.69;1750713;81;20963;-67
2022/01/07 03:57:19;;;;;;;2.47;1.70;;;;;;;-0.84;100.00;99125.30;1753037;81;21003;-67
2022/01/07 03:59:45;;;;;;;2.47;1.70;;;;;;;-0.81;100.00;99130.73;1717166;82;21074;-66
2022/01/07 04:02:11;;;;;;;4.05;2.10;;;;;;;-0.77;100.00;99131.87;1719315;82;20943;-68
2022/01/07 04:04:37;;;;;;;2.37;1.70;;;;;;;-0.74;100.00;99133.53;1719349;81;21035;-70
2022/01/07 04:07:04;;;;;;;1.72;1.35;;;;;;;-0.69;100.00;99140.06;1718530;82;21666;-66
2022/01/07 04:09:31;;;;;;;1.77;1.22;;;;;;;-0.67;100.00;99139.27;1696442;83;21072;-64
2022/01/07 04:11:59;;;;;;;2.75;1.35;;;;;;;-0.64;100.00;99145.52;1694325;83;21068;-66
2022/01/07 04:14:31;;;;;;;2.22;1.32;;;;;;;-0.63;100.00;99152.03;1701628;83;21013;-63
2022/01/07 04:16:59;;;;;;;4.17;1.27;;;;;;;-0.64;100.00;99152.29;1752997;80;21180;-66
2022/01/07 04:19:25;;;;;;;3.20;1.50;;;;;;;-0.67;100.00;99157.69;1752484;81;20875;-67
2022/01/07 04:21:51;;;;;;;2.85;1.52;;;;;;;-0.63;100.00;99160.68;1754084;81;21011;-67
2022/01/07 04:24:18;;;;;;;1.32;1.05;;;;;;;-0.60;100.00;99158.02;1757229;81;21560;-65
2022/01/07 04:26:45;;;;;;;1.85;1.15;;;;;;;-0.59;100.00;99167.77;1754635;81;20903;-67
2022/01/07 04:29:11;;;;;;;2.70;1.45;;;;;;;-0.61;100.00;99172.08;1723061;81;21035;-67
2022/01/07 04:31:38;;;;;;;1.42;1.00;;;;;;;-0.63;100.00;99176.92;1749563;81;21142;-67
2022/01/07 04:34:04;;;;;;;1.32;0.90;;;;;;;-0.66;100.00;99178.27;1748457;81;20970;-67
2022/01/07 04:36:32;;;;;;;1.47;1.00;;;;;;;-0.66;100.00;99179.61;1748849;81;20923;-68
2022/01/07 04:38:58;;;;;;;1.87;1.15;;;;;;;-0.64;100.00;99187.48;1752443;81;21107;-67
2022/01/07 04:41:24;;;;;;;1.87;1.17;;;;;;;-0.66;100.00;99186.37;1758871;81;21610;-67
2022/01/07 04:43:51;;;;;;;5.92;1.40;;;;;;;-0.67;100.00;99187.46;1748767;80;20889;-67
2022/01/07 04:46:17;;;;;;;1.35;1.12;;;;;;;-0.65;100.00;99195.33;1748844;81;20910;-68
2022/01/07 04:48:44;;;;;;;1.57;1.10;;;;;;;-0.63;100.00;99205.34;1750028;81;21413;-66
2022/01/07 04:51:12;;;;;;;2.00;1.10;;;;;;;-0.62;100.00;99209.17;1751283;79;20935;-66
2022/01/07 04:53:38;;;;;;;2.62;1.07;;;;;;;-0.62;100.00;99210.53;1754041;81;22229;-68
2022/01/07 04:56:05;;;;;;;2.30;1.22;;;;;;;-0.61;100.00;99218.09;1752160;81;21030;-67
2022/01/07 04:58:33;;;;;;;2.92;1.20;;;;;;;-0.71;100.00;99216.09;1755793;81;20935;-68
2022/01/07 05:00:59;;;;;;;2.30;1.30;;;;;;;-0.76;100.00;99221.44;1755755;81;21030;-68
2022/01/07 05:03:26;;;;;;;1.45;1.10;;;;;;;-0.84;100.00;99225.41;1749547;81;20833;-67
2022/01/07 05:06:04;;;;;;;1.92;1.25;;;;;;;-0.91;100.00;99226.95;1758888;81;21836;-68
2022/01/07 05:08:21;;;;;;;2.77;1.55;;;;;;;-0.93;100.00;99233.67;1746552;81;20944;-67
2022/01/07 05:10:49;;;;;;;2.17;1.60;;;;;;;-0.95;100.00;99235.28;1749392;81;20991;-67
2022/01/07 05:13:15;;;;;;;2.05;1.47;;;;;;;-0.96;100.00;99243.12;1745349;81;20952;-67
2022/01/07 05:15:44;;;;;;;1.75;1.25;;;;;;;-0.94;100.00;99249.62;1754895;81;20967;-67
2022/01/07 05:18:11;;;;;;;4.37;1.57;;;;;;;-0.95;100.00;99245.27;1748960;81;21457;-66
2022/01/07 05:20:37;;;;;;;2.40;1.50;;;;;;;-0.94;100.00;99246.40;1754090;79;21003;-67
2022/01/07 05:23:03;;;;;;;2.58;1.62;;;;;;;-0.91;100.00;99246.42;1752361;81;20876;-67
2022/01/07 05:25:34;;;;;;;2.40;1.87;;;;;;;-0.89;100.00;99248.34;1755770;81;21468;-67
2022/01/07 05:27:58;;;;;;;3.12;1.98;;;;;;;-0.85;100.00;99253.52;1751886;81;21467;-67
2022/01/07 05:30:25;;;;;;;3.58;2.58;;;;;;;-0.84;100.00;99255.18;1755839;81;21067;-68
2022/01/07 05:32:51;;;;;;;4.00;1.70;;;;;;;-0.82;100.00;99271.16;1752489;81;20968;-67
2022/01/07 05:35:17;;;;;;;2.27;1.12;;;;;;;-0.89;100.00;99317.34;1752399;81;21298;-68
2022/01/07 05:37:44;;;;;;;1.25;0.95;;;;;;;-1.51;100.00;99320.73;1749338;81;20984;-66
2022/01/07 05:40:11;;;;;;;1.80;1.20;;;;;;;-1.57;100.00;99327.12;1752157;81;21018;-67
2022/01/07 05:42:39;;;;;;;2.08;1.00;;;;;;;-1.80;100.00;99323.47;1748438;81;21143;-67
2022/01/07 05:45:06;;;;;;;1.57;0.93;;;;;;;-2.06;100.00;99340.54;1749298;80;20913;-67
2022/01/07 05:47:33;;;;;;;1.90;1.05;;;;;;;-2.19;100.00;99336.25;1748839;81;21043;-67
2022/01/07 05:49:59;;;;;;;2.90;1.60;;;;;;;-2.24;100.00;99338.33;1759257;81;21445;-68
2022/01/07 05:52:26;;;;;;;8.98;3.40;;;;;;;-2.28;100.00;99342.55;1747585;81;20917;-66
2022/01/07 05:54:52;;;;;;;3.45;1.80;;;;;;;-2.31;100.00;99345.73;1746933;79;21141;-67
2022/01/07 05:57:19;;;;;;;3.80;1.47;;;;;;;-2.32;100.00;99353.00;1748813;81;20990;-68
2022/01/07 05:59:45;;;;;;;5.60;1.52;;;;;;;-2.32;100.00;99359.75;1752321;81;21020;-67
2022/01/07 06:02:12;;;;;;;3.30;1.32;;;;;;;-2.33;100.00;99358.64;1752413;81;20960;-67
2022/01/07 06:04:38;;;;;;;2.22;1.52;;;;;;;-2.31;100.00;99360.58;1755904;81;20994;-68
2022/01/07 06:07:04;;;;;;;3.60;1.55;;;;;;;-2.30;100.00;99362.20;1755839;81;21146;-69
2022/01/07 06:09:30;;;;;;;2.45;1.50;;;;;;;-2.35;100.00;99368.85;1752243;81;21666;-68
2022/01/07 06:11:57;;;;;;;2.40;1.42;;;;;;;-2.35;100.00;99371.55;1749308;81;21083;-67
2022/01/07 06:14:23;;;;;;;2.02;1.40;;;;;;;-2.38;100.00;99369.33;1759107;79;21113;-68
2022/01/07 06:16:50;;;;;;;2.75;1.20;;;;;;;-2.37;100.00;99375.04;1748889;81;21091;-68
2022/01/07 06:19:18;;;;;;;3.72;2.12;;;;;;;-2.34;100.00;99396.16;1759234;81;21487;-68
2022/01/07 06:21:46;;;;;;;3.83;2.47;;;;;;;-2.35;100.00;99399.89;1755739;81;20925;-67
2022/01/07 06:24:14;;;;;;;5.83;2.77;;;;;;;-2.34;100.00;99401.00;1748957;81;20940;-64
2022/01/07 06:26:40;;;;;;;5.60;2.72;;;;;;;-2.35;100.00;99405.30;1752613;79;20924;-68
2022/01/07 06:29:07;;;;;;;7.03;2.40;;;;;;;-2.42;100.00;99412.72;1747315;81;20897;-66
2022/01/07 06:31:33;;;;;;;3.87;1.42;;;;;;;-2.49;100.00;99420.39;1756190;81;21836;-67
2022/01/07 06:34:02;;;;;;;6.20;2.25;;;;;;;-2.52;100.00;99424.91;1749163;81;20988;-67
2022/01/07 06:36:29;;;;;;;21.20;7.42;;;;;;;-2.59;100.00;99426.89;1745787;81;21028;-68
2022/01/07 06:38:58;;;;;;;16.15;4.58;;;;;;;-2.64;100.00;99426.26;1759047;79;21140;-67
2022/01/07 06:41:24;;;;;;;3.77;1.90;;;;;;;-2.62;100.00;99435.47;1749211;81;21582;-69
2022/01/07 06:43:50;;;;;;;4.67;1.92;;;;;;;-2.62;100.00;99445.74;1752663;80;21209;-67
2022/01/07 06:46:17;;;;;;;3.95;1.98;;;;;;;-2.60;100.00;99452.25;1748918;81;21027;-68
2022/01/07 06:48:45;;;;;;;4.90;2.30;;;;;;;-2.57;100.00;99459.87;1756291;81;21496;-68
2022/01/07 06:51:15;;;;;;;5.83;1.87;;;;;;;-2.51;100.00;99461.66;1751025;81;20892;-66
2022/01/07 06:53:41;;;;;;;6.17;2.75;;;;;;;-2.44;100.00;99461.53;1723039;80;21471;-68
2022/01/07 06:56:09;;;;;;;4.92;2.45;;;;;;;-2.43;100.00;99466.39;1755483;81;21208;-69
2022/01/07 06:58:35;;;;;;;11.90;3.15;;;;;;;-2.39;100.00;99471.62;1756171;81;20996;-66
2022/01/07 07:01:06;;;;;;;8.53;2.65;;;;;;;-2.36;100.00;99469.28;1756087;79;20977;-69
2022/01/07 07:03:33;;;;;;;4.35;1.85;;;;;;;-2.39;100.00;99474.32;1756496;81;21167;-68
2022/01/07 07:05:59;;;;;;;3.70;1.57;;;;;;;-2.38;100.00;99486.23;1742157;81;20977;-69
2022/01/07 07:08:25;;;;;;;4.53;1.52;;;;;;;-2.34;100.00;99481.98;1759394;79;22316;-67
2022/01/07 07:10:52;;;;;;;5.22;1.72;;;;;;;-2.26;100.00;99490.80;1752434;81;21467;-68
2022/01/07 07:13:18;;;;;;;9.38;3.27;;;;;;;-2.24;100.00;99495.44;1752648;81;21007;-69
2022/01/07 07:15:46;;;;;;;5.42;3.12;;;;;;;-2.25;100.00;99495.95;1752128;81;20984;-68
2022/01/07 07:18:17;;;;;;;13.05;4.12;;;;;;;-2.28;100.00;99502.35;1753871;81;20912;-68
2022/01/07 07:20:44;;;;;;;8.30;2.45;;;;;;;-2.29;100.00;99514.22;1756044;81;21200;-68
2022/01/07 07:23:12;;;;;;;8.65;3.37;;;;;;;-2.28;100.00;99523.44;1745299;81;20968;-68
2022/01/07 07:25:38;;;;;;;3.75;2.10;;;;;;;-2.25;100.00;99531.05;1756190;81;21003;-68
2022/01/07 07:28:05;;;;;;;5.37;2.77;;;;;;;-2.28;100.00;99528.00;1752493;81;20907;-67
2022/01/07 07:30:36;;;;;;;3.72;2.10;;;;;;;-2.28;100.00;99526.13;1756050;81;21155;-67
2022/01/07 07:33:18;;;;;;;4.45;2.33;;;;;;;-2.25;100.00;99539.16;1757728;80;21797;-68
2022/01/07 07:38:13;;;;;;;6.35;2.47;;;;;;;-2.15;100.00;99545.31;1752283;81;21101;-66
2022/01/07 07:40:40;;;;;;;3.05;1.87;;;;;;;-2.08;100.00;99552.78;1755916;81;21034;-68
2022/01/07 07:43:06;;;;;;;4.97;2.55;;;;;;;-2.06;100.00;99541.73;1742175;81;20988;-66
2022/01/07 07:45:32;;;;;;;14.87;6.10;;;;;;;-2.09;100.00;99557.06;1748988;81;21138;-67
2022/01/07 07:47:59;;;;;;;10.32;3.27;;;;;;;-2.04;100.00;99566.64;1755237;81;21389;-67
2022/01/07 07:50:29;;;;;;;8.78;2.50;;;;;;;-1.99;100.00;99572.68;1745499;81;20841;-67
2022/01/07 07:52:57;;;;;;;3.12;1.80;;;;;;;-1.97;100.00;99580.86;1729212;80;20928;-67
2022/01/07 07:55:23;;;;;;;4.65;2.42;;;;;;;-1.94;100.00;99580.10;1751858;81;21479;-68
2022/01/07 07:57:50;;;;;;;3.37;2.02;;;;;;;-1.93;100.00;99588.48;1752370;81;21180;-68
2022/01/07 08:00:16;;;;;;;3.72;2.02;;;;;;;-1.92;100.00;99584.72;1752370;81;21562;-68
2022/01/07 08:02:44;;;;;;;6.97;1.80;;;;;;;-1.87;100.00;99592.42;1745463;81;21028;-68
2022/01/07 08:05:10;;;;;;;4.78;2.50;;;;;;;-1.80;100.00;99597.70;1749468;81;21015;-67
2022/01/07 08:07:40;;;;;;;3.90;2.02;;;;;;;-1.80;100.00;99605.80;1755825;81;21098;-68
2022/01/07 08:10:08;;;;;;;5.25;1.95;;;;;;;-1.78;100.00;99610.97;1755855;81;21139;-68
2022/01/07 08:17:57;;;;;;;4.95;2.42;;;;;;;-1.86;100.00;99629.72;1759396;81;20932;-68
2022/01/07 08:20:25;;;;;;;6.83;2.72;;;;;;;-1.91;100.00;99633.66;1755947;81;20968;-68
2022/01/07 08:22:52;;;;;;;6.60;2.08;;;;;;;-1.87;100.00;99643.75;1759518;81;21148;-67
2022/01/07 08:25:19;;;;;;;6.08;2.40;;;;;;;-1.77;100.00;99643.16;1752813;81;21027;-68
2022/01/07 08:27:46;;;;;;;3.58;2.08;;;;;;;-1.66;100.00;99649.63;1752316;81;20976;-67
2022/01/07 08:30:21;;;;;;;5.37;2.05;;;;;;;-1.55;100.00;99659.33;1698062;83;20961;-68
2022/01/07 08:35:28;;;;;;;6.50;2.87;;;;;;;-1.52;100.00;99663.70;1755728;81;21165;-68
2022/01/07 08:37:55;;;;;;;4.92;2.90;;;;;;;-1.53;100.00;99666.13;1745405;81;21042;-67
2022/01/07 08:40:21;;;;;;;4.35;2.00;;;;;;;-1.54;100.00;99679.36;1755925;81;21028;-67
2022/01/07 08:42:48;;;;;;;3.67;2.02;;;;;;;-1.65;100.00;99679.64;1755771;81;21050;-68
2022/01/07 08:45:15;;;;;;;4.45;1.42;;;;;;;-1.71;100.00;99681.94;1748910;80;20932;-68
2022/01/07 08:47:41;;;;;;;4.53;1.55;;;;;;;-1.77;100.00;99691.80;1754773;81;21953;-68
2022/01/07 08:50:08;;;;;;;3.00;2.02;;;;;;;-1.93;100.00;99697.89;1753644;81;20943;-68
2022/01/07 08:52:35;;;;;;;6.92;2.10;;;;;;;-2.04;100.00;99703.55;1756066;81;20984;-68
2022/01/07 08:55:04;;;;;;;3.90;1.75;;;;;;;-2.13;100.00;99705.79;1759321;81;20975;-68
2022/01/07 08:57:31;;;;;;;2.80;1.30;;;;;;;-2.28;100.00;99707.54;1753235;79;20919;-66
2022/01/07 08:59:58;;;;;;;2.52;1.42;;;;;;;-2.30;100.00;99708.32;1755361;81;21973;-69
2022/01/07 09:02:24;;;;;;;3.08;1.65;;;;;;;-2.27;100.00;99719.45;1749083;81;21083;-68
2022/01/07 09:04:50;;;;;;;4.58;1.92;;;;;;;-2.24;100.00;99712.27;1752245;81;20974;-67
2022/01/07 09:07:17;;;;;;;3.15;1.62;;;;;;;-2.15;100.00;99719.49;1752302;79;22012;-68
2022/01/07 09:09:43;;;;;;;6.47;2.15;;;;;;;-2.04;100.00;99726.52;1755665;81;21073;-69
2022/01/07 09:12:09;;;;;;;4.55;1.47;;;;;;;-2.01;100.00;99730.09;1756151;81;23350;-69
2022/01/07 09:14:36;;;;;;;4.75;1.75;;;;;;;-1.92;100.00;99732.77;1755706;81;21469;-68
2022/01/07 09:17:03;;;;;;;6.97;2.25;;;;;;;-1.81;100.00;99727.63;1754775;81;20924;-68
2022/01/07 09:19:30;;;;;;;7.25;2.40;;;;;;;-1.72;100.00;99732.45;1753644;81;20980;-68
2022/01/07 09:21:58;;;;;;;7.45;2.20;;;;;;;-1.60;100.00;99732.47;1752339;81;21003;-69
2022/01/07 09:24:26;;;;;;;5.17;1.75;;;;;;;-1.53;100.00;99731.00;1759401;81;23381;-68
2022/01/07 09:26:53;;;;;;;5.75;1.50;;;;;;;-1.49;100.00;99733.55;1746525;81;21362;-68
2022/01/07 09:29:23;;;;;;;3.08;1.55;;;;;;;-1.47;100.00;99743.57;1751641;81;21489;-69
2022/01/07 09:31:48;;;;;;;3.72;1.80;;;;;;;-1.43;100.00;99745.28;1752037;81;21157;-68
2022/01/07 09:34:16;;;;;;;3.72;2.10;;;;;;;-1.39;100.00;99746.99;1752690;81;21007;-69
2022/01/07 09:36:42;;;;;;;4.22;2.37;;;;;;;-1.37;100.00;99752.47;1755965;81;21223;-66
2022/01/07 09:39:09;;;;;;;2.08;0.90;;;;;;;-1.36;100.00;99756.81;1759329;81;20927;-68
2022/01/07 09:41:35;;;;;;;9.45;4.42;;;;;;;-1.32;100.00;99759.88;1752588;81;21437;-67
2022/01/07 09:44:03;;;;;;;11.20;5.05;;;;;;;-1.24;100.00;99762.22;1759255;80;20964;-67
2022/01/07 09:46:29;;;;;;;5.45;3.55;;;;;;;-1.16;100.00;99766.99;1752289;80;21522;-66
2022/01/07 09:48:56;;;;;;;5.22;2.70;;;;;;;-1.10;100.00;99760.62;1755779;81;21309;-68
2022/01/07 09:51:26;;;;;;;5.70;1.92;;;;;;;-1.07;100.00;99763.38;1747094;81;20915;-68
2022/01/07 09:53:52;;;;;;;5.87;1.80;;;;;;;-1.02;100.00;99770.25;1754679;81;21073;-68
2022/01/07 09:56:19;;;;;;;6.15;2.47;;;;;;;-1.00;100.00;99766.79;1753159;81;20932;-67
2022/01/07 09:58:46;;;;;;;4.08;2.00;;;;;;;-0.90;100.00;99768.89;1751920;81;20983;-67
2022/01/07 10:01:19;;;;;;;4.17;2.50;;;;;;;-0.72;100.00;99776.06;1748676;81;21132;-70
2022/01/07 10:03:44;;;;;;;3.58;1.90;;;;;;;-0.53;100.00;99767.77;1752159;81;21062;-68
2022/01/07 10:06:22;;;;;;;3.58;2.12;;;;;;;-0.37;100.00;99784.61;1747972;81;21656;-68
2022/01/07 10:09:16;;;;;;;5.00;2.40;;;;;;;-0.32;100.00;99782.53;1733063;81;21492;-68
2022/01/07 10:11:41;;;;;;;8.05;3.05;;;;;;;-0.23;100.00;99784.85;1748266;81;21523;-68
2022/01/07 10:14:22;;;;;;;4.30;2.35;;;;;;;-0.21;100.00;99788.15;1755830;81;20833;-64
2022/01/07 10:16:54;;;;;;;2.87;1.65;;;;;;;-0.18;100.00;99789.02;1755716;81;21082;-67
2022/01/07 10:19:42;;;;;;;4.05;2.12;;;;;;;-0.25;100.00;99788.64;1749214;81;21541;-68
2022/01/07 10:22:15;;;;;;;6.55;3.17;;;;;;;-0.23;100.00;99782.97;1748857;81;20935;-64
2022/01/07 10:25:01;;;;;;;6.25;2.70;;;;;;;-0.07;100.00;99798.17;1752428;81;20953;-66
2022/01/07 10:27:35;;;;;;;11.83;2.83;;;;;;;-0.06;100.00;99794.38;1755039;81;21171;-68
2022/01/07 10:30:02;;;;;;;4.00;1.40;;;;;;;-0.20;100.00;99799.27;1726598;81;21055;-67
2022/01/07 10:32:31;;;;;;;1.95;1.30;;;;;;;-0.50;100.00;99793.84;1670230;81;21039;-68
2022/01/07 10:35:09;;;;;;;7.03;3.22;;;;;;;-0.76;100.00;99796.01;1751542;81;21175;-65
2022/01/07 10:37:59;;;;;;;4.75;1.67;;;;;;;-0.73;100.00;99793.34;1752331;81;20960;-68
2022/01/07 10:40:33;;;;;;;5.53;1.77;;;;;;;-0.75;100.00;99795.48;1759360;81;21046;-66
2022/01/07 10:43:25;;;;;;;5.42;2.10;;;;;;;-0.83;100.00;99806.12;1752351;80;20984;-65
2022/01/07 10:45:55;;;;;;;4.15;1.57;;;;;;;-0.84;100.00;99811.26;1756305;81;21146;-66
2022/01/07 10:48:26;;;;;;;8.73;2.30;;;;;;;-0.90;100.00;99810.83;1752464;81;20995;-66
2022/01/07 10:50:55;;;;;;;8.48;1.57;;;;;;;-0.93;100.00;99813.50;1748114;81;20925;-67
2022/01/07 10:53:29;;;;;;;6.17;2.02;;;;;;;-1.05;100.00;99820.78;1754022;81;21166;-66
2022/01/07 10:56:14;;;;;;;4.75;2.80;;;;;;;-1.13;100.00;99824.67;1752491;81;21949;-66
2022/01/07 10:58:49;;;;;;;4.53;1.55;;;;;;;-1.05;100.00;99829.73;1755817;81;21465;-67
2022/01/07 11:01:28;;;;;;;10.10;2.72;;;;;;;-1.10;100.00;99825.55;1755787;81;21944;-68
2022/01/07 11:03:57;;;;;;;8.05;2.62;;;;;;;-1.20;100.00;99821.25;1752356;81;21452;-68
2022/01/07 11:06:25;;;;;;;6.37;2.25;;;;;;;-1.28;100.00;99819.73;1752917;79;21162;-63
2022/01/07 11:08:54;;;;;;;5.40;1.65;;;;;;;-1.30;100.00;99818.61;1752133;81;21037;-68
2022/01/07 11:11:22;;;;;;;11.68;3.25;;;;;;;-1.38;100.00;99817.05;1755798;81;21019;-67
2022/01/07 11:13:48;;;;;;;11.00;3.25;;;;;;;-1.48;100.00;99810.87;1754900;81;21042;-68
2022/01/07 11:16:16;;;;;;;12.30;3.50;;;;;;;-1.47;100.00;99809.80;1746491;81;20931;-69
2022/01/07 11:18:46;;;;;;;3.92;1.37;;;;;;;-1.39;100.00;99808.66;1759535;81;20899;-67
2022/01/07 11:21:14;;;;;;;2.62;1.40;;;;;;;-1.31;100.00;99812.09;1746729;81;21441;-67
2022/01/07 11:23:42;;;;;;;4.20;1.37;;;;;;;-1.18;100.00;99806.97;1701932;81;21023;-62
2022/01/07 11:26:12;;;;;;;6.12;2.08;;;;;;;-1.10;100.00;99807.97;1748800;81;21562;-67
2022/01/07 11:29:03;;;;;;;4.47;1.40;;;;;;;-1.01;100.00;99807.89;1759422;81;20980;-67
2022/01/07 11:31:30;;;;;;;11.18;1.92;;;;;;;-0.84;100.00;99809.91;1755385;81;21198;-66
2022/01/07 11:34:12;;;;;;;7.55;2.12;;;;;;;-0.84;100.00;99818.02;1748785;81;21463;-69
2022/01/07 11:36:39;;;;;;;6.75;2.12;;;;;;;-0.83;100.00;99817.47;1745261;81;21052;-68
2022/01/07 11:39:07;;;;;;;6.00;2.67;;;;;;;-0.70;100.00;99828.59;1686654;83;20924;-68
2022/01/07 11:41:55;;;;;;;4.28;1.90;;;;;;;-0.57;100.00;99830.22;1721681;82;21067;-69
2022/01/07 11:44:28;;;;;;;5.17;1.60;;;;;;;-0.54;100.00;99833.27;1752444;80;24052;-67